sensor_id;sensor_type;location;lat;lon;timestamp;P1;durP1;ratioP1;P2;durP2;ratioP2
36597;SDS011;22607;49.550;11.940;2023-08-20T00:00:59;9.43;;;5.38;;
36597;SDS011;22607;49.550;11.940;2023-08-20T00:03:30;9.77;;;5.10;;
36597;SDS011;22607;49.550;11.940;2023-08-20T00:05:57;10.93;;;5.38;;
36597;SDS011;22607;49.550;11.940;2023-08-20T00:08:24;10.15;;;5.18;;
36597;SDS011;22607;49.550;11.940;2023-08-20T00:10:50;10.35;;;5.13;;
36597;SDS011;22607;49.550;11.940;2023-08-20T00:13:17;11.13;;;5.63;;
36597;SDS011;22607;49.550;11.940;2023-08-20T00:15:44;9.50;;;5.00;;
36597;SDS011;22607;49.550;11.940;2023-08-20T00:18:11;12.38;;;5.35;;
36597;SDS011;22607;49.550;11.940;2023-08-20T00:20:38;10.35;;;4.97;;
36597;SDS011;22607;49.550;11.940;2023-08-20T00:23:06;9.45;;;4.63;;
36597;SDS011;22607;49.550;11.940;2023-08-20T00:25:33;10.10;;;5.20;;
36597;SDS011;22607;49.550;11.940;2023-08-20T00:28:01;10.20;;;5.32;;
36597;SDS011;22607;49.550;11.940;2023-08-20T00:30:27;10.85;;;5.43;;
36597;SDS011;22607;49.550;11.940;2023-08-20T00:32:54;10.18;;;4.80;;
36597;SDS011;22607;49.550;11.940;2023-08-20T00:35:22;11.13;;;5.68;;
36597;SDS011;22607;49.550;11.940;2023-08-20T00:37:49;9.95;;;5.10;;
36597;SDS011;22607;49.550;11.940;2023-08-20T00:40:16;9.50;;;4.93;;
36597;SDS011;22607;49.550;11.940;2023-08-20T00:42:42;10.07;;;5.30;;
36597;SDS011;22607;49.550;11.940;2023-08-20T00:45:09;10.70;;;5.40;;
36597;SDS011;22607;49.550;11.940;2023-08-20T00:47:36;9.93;;;5.10;;
36597;SDS011;22607;49.550;11.940;2023-08-20T00:50:04;10.95;;;5.20;;
36597;SDS011;22607;49.550;11.940;2023-08-20T00:52:33;10.02;;;5.22;;
36597;SDS011;22607;49.550;11.940;2023-08-20T00:55:03;10.10;;;5.70;;
36597;SDS011;22607;49.550;11.940;2023-08-20T00:57:36;10.40;;;5.97;;
36597;SDS011;22607;49.550;11.940;2023-08-20T01:00:04;9.27;;;4.90;;
36597;SDS011;22607;49.550;11.940;2023-08-20T01:02:38;10.20;;;5.15;;
36597;SDS011;22607;49.550;11.940;2023-08-20T01:05:06;10.60;;;4.80;;
36597;SDS011;22607;49.550;11.940;2023-08-20T01:07:46;9.77;;;4.82;;
36597;SDS011;22607;49.550;11.940;2023-08-20T01:10:19;9.43;;;5.27;;
36597;SDS011;22607;49.550;11.940;2023-08-20T01:12:56;11.50;;;5.57;;
36597;SDS011;22607;49.550;11.940;2023-08-20T01:15:24;10.60;;;4.97;;
36597;SDS011;22607;49.550;11.940;2023-08-20T01:17:51;9.85;;;5.50;;
36597;SDS011;22607;49.550;11.940;2023-08-20T01:20:18;11.77;;;5.63;;
36597;SDS011;22607;49.550;11.940;2023-08-20T01:30:54;10.13;;;5.47;;
36597;SDS011;22607;49.550;11.940;2023-08-20T01:33:23;10.05;;;5.65;;
36597;SDS011;22607;49.550;11.940;2023-08-20T01:35:53;9.82;;;4.80;;
36597;SDS011;22607;49.550;11.940;2023-08-20T01:38:21;10.57;;;5.50;;
36597;SDS011;22607;49.550;11.940;2023-08-20T01:40:48;8.60;;;5.00;;
36597;SDS011;22607;49.550;11.940;2023-08-20T01:43:15;9.15;;;4.93;;
36597;SDS011;22607;49.550;11.940;2023-08-20T01:45:42;9.32;;;5.40;;
36597;SDS011;22607;49.550;11.940;2023-08-20T01:48:10;9.52;;;5.53;;
36597;SDS011;22607;49.550;11.940;2023-08-20T01:50:36;8.98;;;5.50;;
36597;SDS011;22607;49.550;11.940;2023-08-20T01:53:03;9.88;;;5.75;;
36597;SDS011;22607;49.550;11.940;2023-08-20T01:55:30;9.95;;;5.72;;
36597;SDS011;22607;49.550;11.940;2023-08-20T01:57:58;10.68;;;5.30;;
36597;SDS011;22607;49.550;11.940;2023-08-20T02:00:24;12.73;;;5.85;;
36597;SDS011;22607;49.550;11.940;2023-08-20T02:02:51;10.75;;;5.45;;
36597;SDS011;22607;49.550;11.940;2023-08-20T02:05:19;10.18;;;4.93;;
36597;SDS011;22607;49.550;11.940;2023-08-20T02:07:46;10.82;;;5.60;;
36597;SDS011;22607;49.550;11.940;2023-08-20T02:10:13;9.88;;;5.80;;
36597;SDS011;22607;49.550;11.940;2023-08-20T02:12:40;10.82;;;6.00;;
36597;SDS011;22607;49.550;11.940;2023-08-20T02:15:08;11.13;;;5.90;;
36597;SDS011;22607;49.550;11.940;2023-08-20T02:17:35;9.65;;;5.18;;
36597;SDS011;22607;49.550;11.940;2023-08-20T02:20:03;9.98;;;5.40;;
36597;SDS011;22607;49.550;11.940;2023-08-20T02:22:34;11.60;;;5.85;;
36597;SDS011;22607;49.550;11.940;2023-08-20T02:25:00;10.57;;;5.45;;
36597;SDS011;22607;49.550;11.940;2023-08-20T02:27:27;9.55;;;5.65;;
36597;SDS011;22607;49.550;11.940;2023-08-20T02:29:55;10.20;;;5.85;;
36597;SDS011;22607;49.550;11.940;2023-08-20T02:32:21;9.55;;;4.97;;
36597;SDS011;22607;49.550;11.940;2023-08-20T02:34:49;10.82;;;5.35;;
36597;SDS011;22607;49.550;11.940;2023-08-20T02:37:17;11.23;;;5.80;;
36597;SDS011;22607;49.550;11.940;2023-08-20T02:39:43;9.88;;;5.72;;
36597;SDS011;22607;49.550;11.940;2023-08-20T02:42:10;9.57;;;5.70;;
36597;SDS011;22607;49.550;11.940;2023-08-20T02:44:37;10.20;;;5.85;;
36597;SDS011;22607;49.550;11.940;2023-08-20T02:47:03;9.18;;;5.35;;
36597;SDS011;22607;49.550;11.940;2023-08-20T02:49:30;10.43;;;5.60;;
36597;SDS011;22607;49.550;11.940;2023-08-20T02:51:57;9.93;;;5.20;;
36597;SDS011;22607;49.550;11.940;2023-08-20T02:54:23;9.45;;;5.28;;
36597;SDS011;22607;49.550;11.940;2023-08-20T02:56:52;9.45;;;5.40;;
36597;SDS011;22607;49.550;11.940;2023-08-20T02:59:19;9.05;;;4.85;;
36597;SDS011;22607;49.550;11.940;2023-08-20T03:01:45;12.20;;;5.50;;
36597;SDS011;22607;49.550;11.940;2023-08-20T03:04:12;11.48;;;6.00;;
36597;SDS011;22607;49.550;11.940;2023-08-20T03:06:39;11.02;;;6.50;;
36597;SDS011;22607;49.550;11.940;2023-08-20T03:09:05;9.75;;;5.45;;
36597;SDS011;22607;49.550;11.940;2023-08-20T03:11:32;12.68;;;6.32;;
36597;SDS011;22607;49.550;11.940;2023-08-20T03:13:59;11.88;;;5.95;;
36597;SDS011;22607;49.550;11.940;2023-08-20T03:16:25;11.13;;;6.00;;
36597;SDS011;22607;49.550;11.940;2023-08-20T03:18:52;10.50;;;5.63;;
36597;SDS011;22607;49.550;11.940;2023-08-20T03:21:18;10.38;;;5.93;;
36597;SDS011;22607;49.550;11.940;2023-08-20T03:23:45;10.23;;;5.70;;
36597;SDS011;22607;49.550;11.940;2023-08-20T03:26:11;10.57;;;5.63;;
36597;SDS011;22607;49.550;11.940;2023-08-20T03:28:38;10.73;;;6.25;;
36597;SDS011;22607;49.550;11.940;2023-08-20T03:31:05;10.45;;;5.55;;
36597;SDS011;22607;49.550;11.940;2023-08-20T03:33:31;12.27;;;5.80;;
36597;SDS011;22607;49.550;11.940;2023-08-20T03:35:58;10.82;;;6.28;;
36597;SDS011;22607;49.550;11.940;2023-08-20T03:38:25;11.23;;;6.25;;
36597;SDS011;22607;49.550;11.940;2023-08-20T03:40:54;10.73;;;6.30;;
36597;SDS011;22607;49.550;11.940;2023-08-20T03:43:21;9.32;;;5.80;;
36597;SDS011;22607;49.550;11.940;2023-08-20T03:45:51;10.07;;;5.57;;
36597;SDS011;22607;49.550;11.940;2023-08-20T03:48:18;9.48;;;5.50;;
36597;SDS011;22607;49.550;11.940;2023-08-20T03:50:46;9.10;;;5.50;;
36597;SDS011;22607;49.550;11.940;2023-08-20T03:53:13;10.10;;;5.78;;
36597;SDS011;22607;49.550;11.940;2023-08-20T03:55:40;10.00;;;6.15;;
36597;SDS011;22607;49.550;11.940;2023-08-20T03:58:07;12.63;;;6.80;;
36597;SDS011;22607;49.550;11.940;2023-08-20T04:00:36;10.07;;;6.00;;
36597;SDS011;22607;49.550;11.940;2023-08-20T04:03:03;10.38;;;5.65;;
36597;SDS011;22607;49.550;11.940;2023-08-20T04:05:35;10.68;;;5.78;;
36597;SDS011;22607;49.550;11.940;2023-08-20T04:08:03;11.30;;;5.65;;
36597;SDS011;22607;49.550;11.940;2023-08-20T04:10:30;11.77;;;6.47;;
36597;SDS011;22607;49.550;11.940;2023-08-20T04:12:58;11.32;;;5.80;;
36597;SDS011;22607;49.550;11.940;2023-08-20T04:15:24;12.73;;;5.90;;
36597;SDS011;22607;49.550;11.940;2023-08-20T04:17:51;11.00;;;5.90;;
36597;SDS011;22607;49.550;11.940;2023-08-20T04:20:19;11.43;;;6.45;;
36597;SDS011;22607;49.550;11.940;2023-08-20T04:22:45;11.80;;;6.47;;
36597;SDS011;22607;49.550;11.940;2023-08-20T04:25:12;10.35;;;5.95;;
36597;SDS011;22607;49.550;11.940;2023-08-20T04:27:38;10.55;;;6.18;;
36597;SDS011;22607;49.550;11.940;2023-08-20T04:30:05;10.10;;;6.10;;
36597;SDS011;22607;49.550;11.940;2023-08-20T04:32:32;10.57;;;6.00;;
36597;SDS011;22607;49.550;11.940;2023-08-20T04:34:59;10.75;;;6.10;;
36597;SDS011;22607;49.550;11.940;2023-08-20T04:37:26;11.13;;;5.70;;
36597;SDS011;22607;49.550;11.940;2023-08-20T04:39:52;10.32;;;5.40;;
36597;SDS011;22607;49.550;11.940;2023-08-20T04:42:20;10.50;;;5.55;;
36597;SDS011;22607;49.550;11.940;2023-08-20T04:44:46;11.35;;;5.68;;
36597;SDS011;22607;49.550;11.940;2023-08-20T04:47:13;10.88;;;6.55;;
36597;SDS011;22607;49.550;11.940;2023-08-20T04:49:40;11.20;;;6.18;;
36597;SDS011;22607;49.550;11.940;2023-08-20T04:52:06;10.13;;;5.95;;
36597;SDS011;22607;49.550;11.940;2023-08-20T04:54:34;11.60;;;6.25;;
36597;SDS011;22607;49.550;11.940;2023-08-20T04:57:00;10.10;;;5.25;;
36597;SDS011;22607;49.550;11.940;2023-08-20T04:59:28;9.55;;;5.50;;
36597;SDS011;22607;49.550;11.940;2023-08-20T05:01:55;10.18;;;5.65;;
36597;SDS011;22607;49.550;11.940;2023-08-20T05:04:22;9.68;;;5.80;;
36597;SDS011;22607;49.550;11.940;2023-08-20T05:06:48;9.43;;;5.30;;
36597;SDS011;22607;49.550;11.940;2023-08-20T05:09:15;9.65;;;5.75;;
36597;SDS011;22607;49.550;11.940;2023-08-20T05:11:42;10.75;;;5.80;;
36597;SDS011;22607;49.550;11.940;2023-08-20T05:14:09;9.18;;;4.90;;
36597;SDS011;22607;49.550;11.940;2023-08-20T05:16:35;9.48;;;5.60;;
36597;SDS011;22607;49.550;11.940;2023-08-20T05:19:03;11.70;;;5.80;;
36597;SDS011;22607;49.550;11.940;2023-08-20T05:21:29;9.75;;;5.43;;
36597;SDS011;22607;49.550;11.940;2023-08-20T05:23:56;10.70;;;5.40;;
36597;SDS011;22607;49.550;11.940;2023-08-20T05:26:23;10.30;;;5.80;;
36597;SDS011;22607;49.550;11.940;2023-08-20T05:28:49;10.75;;;6.00;;
36597;SDS011;22607;49.550;11.940;2023-08-20T05:31:16;10.70;;;5.80;;
36597;SDS011;22607;49.550;11.940;2023-08-20T05:33:43;10.45;;;6.10;;
36597;SDS011;22607;49.550;11.940;2023-08-20T05:36:09;10.63;;;6.15;;
36597;SDS011;22607;49.550;11.940;2023-08-20T05:38:36;11.57;;;6.10;;
36597;SDS011;22607;49.550;11.940;2023-08-20T05:41:04;9.45;;;5.65;;
36597;SDS011;22607;49.550;11.940;2023-08-20T05:43:30;10.82;;;5.88;;
36597;SDS011;22607;49.550;11.940;2023-08-20T05:45:57;10.65;;;5.65;;
36597;SDS011;22607;49.550;11.940;2023-08-20T05:48:24;10.88;;;5.72;;
36597;SDS011;22607;49.550;11.940;2023-08-20T05:50:50;11.18;;;6.38;;
36597;SDS011;22607;49.550;11.940;2023-08-20T05:53:17;11.02;;;6.60;;
36597;SDS011;22607;49.550;11.940;2023-08-20T05:55:44;10.23;;;5.93;;
36597;SDS011;22607;49.550;11.940;2023-08-20T05:58:10;11.00;;;6.10;;
36597;SDS011;22607;49.550;11.940;2023-08-20T06:00:37;11.07;;;6.65;;
36597;SDS011;22607;49.550;11.940;2023-08-20T06:03:04;12.52;;;7.07;;
36597;SDS011;22607;49.550;11.940;2023-08-20T06:05:31;10.65;;;6.68;;
36597;SDS011;22607;49.550;11.940;2023-08-20T06:07:58;12.90;;;6.60;;
36597;SDS011;22607;49.550;11.940;2023-08-20T06:10:24;11.27;;;6.70;;
36597;SDS011;22607;49.550;11.940;2023-08-20T06:12:51;11.95;;;7.05;;
36597;SDS011;22607;49.550;11.940;2023-08-20T06:15:18;12.30;;;7.20;;
36597;SDS011;22607;49.550;11.940;2023-08-20T06:17:45;10.60;;;6.45;;
36597;SDS011;22607;49.550;11.940;2023-08-20T06:20:12;12.52;;;6.85;;
36597;SDS011;22607;49.550;11.940;2023-08-20T06:22:38;10.52;;;6.40;;
36597;SDS011;22607;49.550;11.940;2023-08-20T06:25:05;11.93;;;6.60;;
36597;SDS011;22607;49.550;11.940;2023-08-20T06:27:32;12.52;;;7.78;;
36597;SDS011;22607;49.550;11.940;2023-08-20T06:30:01;11.95;;;7.43;;
36597;SDS011;22607;49.550;11.940;2023-08-20T06:32:27;10.48;;;6.38;;
36597;SDS011;22607;49.550;11.940;2023-08-20T06:34:54;9.85;;;6.07;;
36597;SDS011;22607;49.550;11.940;2023-08-20T06:37:21;10.35;;;6.43;;
36597;SDS011;22607;49.550;11.940;2023-08-20T06:39:47;11.25;;;6.55;;
36597;SDS011;22607;49.550;11.940;2023-08-20T06:42:14;12.18;;;6.47;;
36597;SDS011;22607;49.550;11.940;2023-08-20T06:44:41;9.73;;;6.32;;
36597;SDS011;22607;49.550;11.940;2023-08-20T06:47:07;10.65;;;6.22;;
36597;SDS011;22607;49.550;11.940;2023-08-20T06:49:34;9.93;;;6.40;;
36597;SDS011;22607;49.550;11.940;2023-08-20T06:52:01;9.57;;;5.68;;
36597;SDS011;22607;49.550;11.940;2023-08-20T06:54:27;10.35;;;6.57;;
36597;SDS011;22607;49.550;11.940;2023-08-20T06:56:54;13.63;;;7.13;;
36597;SDS011;22607;49.550;11.940;2023-08-20T06:59:20;10.48;;;6.28;;
36597;SDS011;22607;49.550;11.940;2023-08-20T07:01:47;12.45;;;6.80;;
36597;SDS011;22607;49.550;11.940;2023-08-20T07:04:14;10.18;;;5.78;;
36597;SDS011;22607;49.550;11.940;2023-08-20T07:06:40;13.43;;;6.53;;
36597;SDS011;22607;49.550;11.940;2023-08-20T07:09:08;10.52;;;6.82;;
36597;SDS011;22607;49.550;11.940;2023-08-20T07:11:35;10.90;;;6.05;;
36597;SDS011;22607;49.550;11.940;2023-08-20T07:14:02;10.40;;;6.38;;
36597;SDS011;22607;49.550;11.940;2023-08-20T07:16:31;11.20;;;6.45;;
36597;SDS011;22607;49.550;11.940;2023-08-20T07:18:58;10.20;;;6.35;;
36597;SDS011;22607;49.550;11.940;2023-08-20T07:21:25;11.35;;;6.40;;
36597;SDS011;22607;49.550;11.940;2023-08-20T07:23:51;9.90;;;6.60;;
36597;SDS011;22607;49.550;11.940;2023-08-20T07:26:19;9.27;;;5.72;;
36597;SDS011;22607;49.550;11.940;2023-08-20T07:28:46;10.95;;;5.75;;
36597;SDS011;22607;49.550;11.940;2023-08-20T07:31:29;11.07;;;6.63;;
36597;SDS011;22607;49.550;11.940;2023-08-20T07:33:57;12.13;;;6.45;;
36597;SDS011;22607;49.550;11.940;2023-08-20T07:36:30;12.23;;;6.32;;
36597;SDS011;22607;49.550;11.940;2023-08-20T07:38:57;9.05;;;6.00;;
36597;SDS011;22607;49.550;11.940;2023-08-20T07:41:28;11.45;;;6.28;;
36597;SDS011;22607;49.550;11.940;2023-08-20T07:43:54;10.00;;;6.50;;
36597;SDS011;22607;49.550;11.940;2023-08-20T07:46:21;10.18;;;6.50;;
36597;SDS011;22607;49.550;11.940;2023-08-20T07:48:48;10.90;;;5.40;;
36597;SDS011;22607;49.550;11.940;2023-08-20T07:51:15;10.02;;;6.53;;
36597;SDS011;22607;49.550;11.940;2023-08-20T07:53:41;10.07;;;6.18;;
36597;SDS011;22607;49.550;11.940;2023-08-20T07:56:08;9.32;;;5.35;;
36597;SDS011;22607;49.550;11.940;2023-08-20T07:58:35;10.35;;;6.18;;
36597;SDS011;22607;49.550;11.940;2023-08-20T08:01:01;9.55;;;5.60;;
36597;SDS011;22607;49.550;11.940;2023-08-20T08:03:29;9.35;;;5.75;;
36597;SDS011;22607;49.550;11.940;2023-08-20T08:05:56;8.55;;;5.30;;
36597;SDS011;22607;49.550;11.940;2023-08-20T08:08:23;9.15;;;5.00;;
36597;SDS011;22607;49.550;11.940;2023-08-20T08:10:50;10.57;;;5.70;;
36597;SDS011;22607;49.550;11.940;2023-08-20T08:13:20;12.25;;;6.10;;
36597;SDS011;22607;49.550;11.940;2023-08-20T08:15:49;8.90;;;5.57;;
36597;SDS011;22607;49.550;11.940;2023-08-20T08:18:16;9.15;;;5.35;;
36597;SDS011;22607;49.550;11.940;2023-08-20T08:20:43;8.77;;;4.78;;
36597;SDS011;22607;49.550;11.940;2023-08-20T08:23:09;10.35;;;5.30;;
36597;SDS011;22607;49.550;11.940;2023-08-20T08:25:36;9.30;;;5.35;;
36597;SDS011;22607;49.550;11.940;2023-08-20T08:28:04;9.32;;;5.72;;
36597;SDS011;22607;49.550;11.940;2023-08-20T08:30:31;8.32;;;4.80;;
36597;SDS011;22607;49.550;11.940;2023-08-20T08:32:58;8.57;;;5.32;;
36597;SDS011;22607;49.550;11.940;2023-08-20T08:35:26;9.02;;;5.15;;
36597;SDS011;22607;49.550;11.940;2023-08-20T08:37:53;10.55;;;5.53;;
36597;SDS011;22607;49.550;11.940;2023-08-20T08:40:21;10.27;;;6.00;;
36597;SDS011;22607;49.550;11.940;2023-08-20T08:42:48;8.85;;;5.30;;
36597;SDS011;22607;49.550;11.940;2023-08-20T08:45:18;9.32;;;5.90;;
36597;SDS011;22607;49.550;11.940;2023-08-20T08:47:48;9.57;;;5.68;;
36597;SDS011;22607;49.550;11.940;2023-08-20T08:50:15;8.80;;;5.43;;
36597;SDS011;22607;49.550;11.940;2023-08-20T08:52:42;10.63;;;5.35;;
36597;SDS011;22607;49.550;11.940;2023-08-20T08:55:11;10.30;;;5.90;;
36597;SDS011;22607;49.550;11.940;2023-08-20T08:57:38;8.75;;;5.03;;
36597;SDS011;22607;49.550;11.940;2023-08-20T09:00:04;8.98;;;5.30;;
36597;SDS011;22607;49.550;11.940;2023-08-20T09:02:33;8.93;;;4.90;;
36597;SDS011;22607;49.550;11.940;2023-08-20T09:05:00;9.65;;;5.10;;
36597;SDS011;22607;49.550;11.940;2023-08-20T09:07:27;9.48;;;4.93;;
36597;SDS011;22607;49.550;11.940;2023-08-20T09:09:57;9.20;;;4.60;;
36597;SDS011;22607;49.550;11.940;2023-08-20T09:12:27;9.27;;;4.80;;
36597;SDS011;22607;49.550;11.940;2023-08-20T09:14:54;9.05;;;5.38;;
36597;SDS011;22607;49.550;11.940;2023-08-20T09:17:26;10.70;;;4.90;;
36597;SDS011;22607;49.550;11.940;2023-08-20T09:19:55;8.73;;;5.10;;
36597;SDS011;22607;49.550;11.940;2023-08-20T09:22:26;8.23;;;4.03;;
36597;SDS011;22607;49.550;11.940;2023-08-20T09:24:54;8.55;;;4.25;;
36597;SDS011;22607;49.550;11.940;2023-08-20T09:27:23;8.20;;;4.33;;
36597;SDS011;22607;49.550;11.940;2023-08-20T09:29:51;8.90;;;3.90;;
36597;SDS011;22607;49.550;11.940;2023-08-20T09:32:26;8.48;;;3.72;;
36597;SDS011;22607;49.550;11.940;2023-08-20T09:34:55;8.98;;;3.65;;
36597;SDS011;22607;49.550;11.940;2023-08-20T09:37:23;7.65;;;3.55;;
36597;SDS011;22607;49.550;11.940;2023-08-20T09:39:50;10.32;;;3.60;;
36597;SDS011;22607;49.550;11.940;2023-08-20T09:42:18;8.60;;;3.13;;
36597;SDS011;22607;49.550;11.940;2023-08-20T09:44:45;6.65;;;3.03;;
36597;SDS011;22607;49.550;11.940;2023-08-20T09:47:16;7.43;;;3.50;;
36597;SDS011;22607;49.550;11.940;2023-08-20T09:49:45;8.68;;;3.70;;
36597;SDS011;22607;49.550;11.940;2023-08-20T09:52:21;7.53;;;3.20;;
36597;SDS011;22607;49.550;11.940;2023-08-20T09:57:42;7.15;;;3.67;;
36597;SDS011;22607;49.550;11.940;2023-08-20T10:00:12;7.60;;;3.63;;
36597;SDS011;22607;49.550;11.940;2023-08-20T10:02:40;8.27;;;3.50;;
36597;SDS011;22607;49.550;11.940;2023-08-20T10:05:08;8.45;;;3.58;;
36597;SDS011;22607;49.550;11.940;2023-08-20T10:07:36;8.75;;;3.38;;
36597;SDS011;22607;49.550;11.940;2023-08-20T10:10:04;7.07;;;3.20;;
36597;SDS011;22607;49.550;11.940;2023-08-20T10:12:33;7.75;;;3.80;;
36597;SDS011;22607;49.550;11.940;2023-08-20T10:15:00;8.82;;;4.05;;
36597;SDS011;22607;49.550;11.940;2023-08-20T10:17:28;8.48;;;3.80;;
36597;SDS011;22607;49.550;11.940;2023-08-20T10:20:01;7.82;;;4.30;;
36597;SDS011;22607;49.550;11.940;2023-08-20T10:25:00;9.82;;;4.15;;
36597;SDS011;22607;49.550;11.940;2023-08-20T10:27:33;9.18;;;4.13;;
36597;SDS011;22607;49.550;11.940;2023-08-20T10:30:03;7.50;;;4.07;;
36597;SDS011;22607;49.550;11.940;2023-08-20T10:35:15;8.43;;;4.43;;
36597;SDS011;22607;49.550;11.940;2023-08-20T10:38:05;7.85;;;3.95;;
36597;SDS011;22607;49.550;11.940;2023-08-20T10:43:27;8.98;;;4.20;;
36597;SDS011;22607;49.550;11.940;2023-08-20T10:46:04;8.90;;;4.13;;
36597;SDS011;22607;49.550;11.940;2023-08-20T10:48:38;8.35;;;3.85;;
36597;SDS011;22607;49.550;11.940;2023-08-20T10:51:06;8.20;;;4.13;;
36597;SDS011;22607;49.550;11.940;2023-08-20T10:53:36;8.18;;;4.25;;
36597;SDS011;22607;49.550;11.940;2023-08-20T10:56:13;7.20;;;3.50;;
36597;SDS011;22607;49.550;11.940;2023-08-20T10:58:42;7.65;;;3.80;;
36597;SDS011;22607;49.550;11.940;2023-08-20T11:01:14;7.28;;;3.80;;
36597;SDS011;22607;49.550;11.940;2023-08-20T11:03:46;8.75;;;3.92;;
36597;SDS011;22607;49.550;11.940;2023-08-20T11:06:16;9.47;;;3.97;;
36597;SDS011;22607;49.550;11.940;2023-08-20T11:08:44;7.60;;;3.90;;
36597;SDS011;22607;49.550;11.940;2023-08-20T11:11:11;7.72;;;4.13;;
36597;SDS011;22607;49.550;11.940;2023-08-20T11:13:39;8.10;;;4.45;;
36597;SDS011;22607;49.550;11.940;2023-08-20T11:16:06;8.85;;;4.28;;
36597;SDS011;22607;49.550;11.940;2023-08-20T11:18:34;7.80;;;4.00;;
36597;SDS011;22607;49.550;11.940;2023-08-20T11:21:02;9.57;;;4.03;;
36597;SDS011;22607;49.550;11.940;2023-08-20T11:23:29;7.88;;;3.92;;
36597;SDS011;22607;49.550;11.940;2023-08-20T11:25:56;9.68;;;4.10;;
36597;SDS011;22607;49.550;11.940;2023-08-20T11:28:24;8.43;;;4.38;;
36597;SDS011;22607;49.550;11.940;2023-08-20T11:30:51;8.75;;;3.67;;
36597;SDS011;22607;49.550;11.940;2023-08-20T11:33:20;10.15;;;4.10;;
36597;SDS011;22607;49.550;11.940;2023-08-20T11:35:47;7.80;;;3.50;;
36597;SDS011;22607;49.550;11.940;2023-08-20T11:38:14;9.55;;;4.20;;
36597;SDS011;22607;49.550;11.940;2023-08-20T11:40:41;9.13;;;3.80;;
36597;SDS011;22607;49.550;11.940;2023-08-20T11:43:08;8.35;;;4.32;;
36597;SDS011;22607;49.550;11.940;2023-08-20T11:45:43;8.88;;;3.95;;
36597;SDS011;22607;49.550;11.940;2023-08-20T11:48:11;8.00;;;3.63;;
36597;SDS011;22607;49.550;11.940;2023-08-20T11:50:37;7.20;;;3.55;;
36597;SDS011;22607;49.550;11.940;2023-08-20T11:53:04;10.80;;;4.40;;
36597;SDS011;22607;49.550;11.940;2023-08-20T11:55:31;8.00;;;4.13;;
36597;SDS011;22607;49.550;11.940;2023-08-20T11:57:58;8.43;;;3.97;;
36597;SDS011;22607;49.550;11.940;2023-08-20T12:00:28;8.73;;;3.83;;
36597;SDS011;22607;49.550;11.940;2023-08-20T12:02:57;8.38;;;3.83;;
36597;SDS011;22607;49.550;11.940;2023-08-20T12:05:30;7.32;;;3.58;;
36597;SDS011;22607;49.550;11.940;2023-08-20T12:07:59;8.68;;;4.05;;
36597;SDS011;22607;49.550;11.940;2023-08-20T12:12:56;8.02;;;3.90;;
36597;SDS011;22607;49.550;11.940;2023-08-20T12:15:23;8.77;;;3.90;;
36597;SDS011;22607;49.550;11.940;2023-08-20T12:17:58;7.93;;;3.78;;
36597;SDS011;22607;49.550;11.940;2023-08-20T12:20:27;8.38;;;3.60;;
36597;SDS011;22607;49.550;11.940;2023-08-20T12:22:57;8.32;;;3.50;;
36597;SDS011;22607;49.550;11.940;2023-08-20T12:25:25;9.00;;;3.50;;
36597;SDS011;22607;49.550;11.940;2023-08-20T12:27:53;9.02;;;4.03;;
36597;SDS011;22607;49.550;11.940;2023-08-20T12:30:19;9.13;;;3.97;;
36597;SDS011;22607;49.550;11.940;2023-08-20T12:32:46;8.95;;;4.03;;
36597;SDS011;22607;49.550;11.940;2023-08-20T12:35:13;7.93;;;3.45;;
36597;SDS011;22607;49.550;11.940;2023-08-20T12:37:40;8.75;;;3.50;;
36597;SDS011;22607;49.550;11.940;2023-08-20T12:40:07;9.15;;;3.75;;
36597;SDS011;22607;49.550;11.940;2023-08-20T12:42:37;7.63;;;3.80;;
36597;SDS011;22607;49.550;11.940;2023-08-20T12:45:07;10.13;;;4.13;;
36597;SDS011;22607;49.550;11.940;2023-08-20T12:47:34;9.27;;;3.92;;
36597;SDS011;22607;49.550;11.940;2023-08-20T12:50:02;7.72;;;3.50;;
36597;SDS011;22607;49.550;11.940;2023-08-20T12:52:31;8.07;;;3.65;;
36597;SDS011;22607;49.550;11.940;2023-08-20T12:54:58;9.35;;;4.03;;
36597;SDS011;22607;49.550;11.940;2023-08-20T12:57:25;8.00;;;3.50;;
36597;SDS011;22607;49.550;11.940;2023-08-20T12:59:52;7.55;;;3.33;;
36597;SDS011;22607;49.550;11.940;2023-08-20T13:02:19;8.95;;;3.80;;
36597;SDS011;22607;49.550;11.940;2023-08-20T13:04:47;7.82;;;3.65;;
36597;SDS011;22607;49.550;11.940;2023-08-20T13:07:14;8.85;;;3.97;;
36597;SDS011;22607;49.550;11.940;2023-08-20T13:09:42;8.57;;;3.97;;
36597;SDS011;22607;49.550;11.940;2023-08-20T13:12:09;9.10;;;4.30;;
36597;SDS011;22607;49.550;11.940;2023-08-20T13:14:41;8.53;;;3.63;;
36597;SDS011;22607;49.550;11.940;2023-08-20T13:17:08;8.40;;;3.78;;
36597;SDS011;22607;49.550;11.940;2023-08-20T13:19:36;8.35;;;3.80;;
36597;SDS011;22607;49.550;11.940;2023-08-20T13:22:03;7.88;;;3.60;;
36597;SDS011;22607;49.550;11.940;2023-08-20T13:24:30;9.50;;;3.60;;
36597;SDS011;22607;49.550;11.940;2023-08-20T13:26:57;8.57;;;4.00;;
36597;SDS011;22607;49.550;11.940;2023-08-20T13:29:24;8.85;;;3.42;;
36597;SDS011;22607;49.550;11.940;2023-08-20T13:31:52;7.65;;;3.75;;
36597;SDS011;22607;49.550;11.940;2023-08-20T13:34:18;9.73;;;3.97;;
36597;SDS011;22607;49.550;11.940;2023-08-20T13:36:45;7.93;;;3.22;;
36597;SDS011;22607;49.550;11.940;2023-08-20T13:39:13;7.40;;;3.25;;
36597;SDS011;22607;49.550;11.940;2023-08-20T13:41:41;8.60;;;3.78;;
36597;SDS011;22607;49.550;11.940;2023-08-20T13:44:08;7.53;;;3.45;;
36597;SDS011;22607;49.550;11.940;2023-08-20T13:46:35;7.93;;;3.88;;
36597;SDS011;22607;49.550;11.940;2023-08-20T13:49:02;8.40;;;3.30;;
36597;SDS011;22607;49.550;11.940;2023-08-20T13:51:29;9.02;;;3.88;;
36597;SDS011;22607;49.550;11.940;2023-08-20T13:53:56;10.57;;;4.22;;
36597;SDS011;22607;49.550;11.940;2023-08-20T13:56:24;9.68;;;4.28;;
36597;SDS011;22607;49.550;11.940;2023-08-20T13:58:52;8.40;;;3.80;;
36597;SDS011;22607;49.550;11.940;2023-08-20T14:01:19;11.48;;;3.92;;
36597;SDS011;22607;49.550;11.940;2023-08-20T14:03:46;8.55;;;4.18;;
36597;SDS011;22607;49.550;11.940;2023-08-20T14:06:13;8.80;;;3.97;;
36597;SDS011;22607;49.550;11.940;2023-08-20T14:08:40;8.75;;;3.72;;
36597;SDS011;22607;49.550;11.940;2023-08-20T14:11:07;7.80;;;3.58;;
36597;SDS011;22607;49.550;11.940;2023-08-20T14:13:34;9.75;;;4.00;;
36597;SDS011;22607;49.550;11.940;2023-08-20T14:16:01;8.77;;;3.80;;
36597;SDS011;22607;49.550;11.940;2023-08-20T14:18:28;8.30;;;3.70;;
36597;SDS011;22607;49.550;11.940;2023-08-20T14:20:55;8.13;;;4.13;;
36597;SDS011;22607;49.550;11.940;2023-08-20T14:23:21;9.90;;;4.40;;
36597;SDS011;22607;49.550;11.940;2023-08-20T14:25:50;7.50;;;3.67;;
36597;SDS011;22607;49.550;11.940;2023-08-20T14:28:16;9.00;;;4.00;;
36597;SDS011;22607;49.550;11.940;2023-08-20T14:30:43;8.77;;;4.00;;
36597;SDS011;22607;49.550;11.940;2023-08-20T14:33:09;8.10;;;3.65;;
36597;SDS011;22607;49.550;11.940;2023-08-20T14:35:36;8.40;;;3.72;;
36597;SDS011;22607;49.550;11.940;2023-08-20T14:38:03;7.82;;;3.83;;
36597;SDS011;22607;49.550;11.940;2023-08-20T14:40:30;8.93;;;3.92;;
36597;SDS011;22607;49.550;11.940;2023-08-20T14:42:57;7.63;;;3.67;;
36597;SDS011;22607;49.550;11.940;2023-08-20T14:45:23;7.30;;;3.53;;
36597;SDS011;22607;49.550;11.940;2023-08-20T14:47:50;7.47;;;3.88;;
36597;SDS011;22607;49.550;11.940;2023-08-20T14:50:17;8.23;;;3.33;;
36597;SDS011;22607;49.550;11.940;2023-08-20T14:52:44;8.88;;;3.97;;